Time;durP1;ratioP1;P1;durP2;ratioP2;P2;SDS_P1;SDS_P2;PMS_P1;PMS_P2;Temp;Humidity;BMP_temperature;BMP_pressure;BME280_temperature;BME280_humidity;BME280_pressure;Samples;Min_cycle;Max_cycle;Signal;HPM_P1;HPM_P2
2021/03/08 00:00:37;;;;;;;143.70;51.40;;;-1.10;99.90;;;;;;4458065;28;659978;-54
2021/03/08 00:03:24;;;;;;;122.03;46.20;;;-1.00;99.90;;;;;;4438996;28;661043;-52
2021/03/08 00:06:11;;;;;;;130.30;46.43;;;-1.20;99.90;;;;;;4464332;28;659664;-53
2021/03/08 00:08:58;;;;;;;132.87;48.70;;;-1.30;99.90;;;;;;4442289;28;659722;-52
2021/03/08 00:11:45;;;;;;;133.00;46.87;;;-1.40;99.90;;;;;;4450120;28;659687;-52
2021/03/08 00:14:33;;;;;;;121.30;46.83;;;-1.40;99.90;;;;;;4456062;28;659440;-56
2021/03/08 00:17:20;;;;;;;132.47;47.73;;;-1.40;99.90;;;;;;4464693;28;660215;-54
2021/03/08 00:20:09;;;;;;;91.17;28.17;;;-1.40;99.90;;;;;;4446344;28;660289;-57
2021/03/08 00:22:57;;;;;;;129.03;45.77;;;-1.30;99.90;;;;;;4461321;28;658387;-53
2021/03/08 00:25:44;;;;;;;116.03;44.80;;;-1.10;99.90;;;;;;4446009;28;661113;-52
2021/03/08 00:28:31;;;;;;;121.90;43.00;;;-1.10;99.90;;;;;;4453089;28;660272;-53
2021/03/08 00:31:19;;;;;;;111.23;44.07;;;-1.20;99.90;;;;;;4444038;28;659664;-53
2021/03/08 00:34:06;;;;;;;115.17;43.23;;;-1.10;99.90;;;;;;4450469;28;661017;-54
2021/03/08 00:36:53;;;;;;;105.83;40.97;;;-1.10;99.90;;;;;;4437518;28;660694;-55
2021/03/08 00:39:39;;;;;;;98.23;38.03;;;-1.10;99.90;;;;;;4461036;28;661452;-50
2021/03/08 00:42:26;;;;;;;92.50;34.93;;;-1.00;99.90;;;;;;4465345;28;658599;-53
2021/03/08 00:45:15;;;;;;;84.37;31.97;;;-1.00;99.90;;;;;;4443454;28;659635;-52
2021/03/08 00:48:03;;;;;;;90.17;34.27;;;-1.00;99.90;;;;;;4463722;28;659760;-54
2021/03/08 00:50:50;;;;;;;79.18;32.55;;;-0.90;99.90;;;;;;4465511;28;658920;-53
2021/03/08 00:53:37;;;;;;;80.27;31.47;;;-0.70;99.90;;;;;;4446009;28;658905;-55
2021/03/08 00:56:24;;;;;;;81.05;31.13;;;-0.70;99.90;;;;;;4468874;28;660080;-53
2021/03/08 00:59:11;;;;;;;82.45;33.08;;;-0.70;99.90;;;;;;4458811;28;659802;-52
2021/03/08 01:01:58;;;;;;;72.90;31.00;;;-0.70;99.90;;;;;;4446020;28;658536;-52
2021/03/08 01:04:46;;;;;;;74.57;30.73;;;-0.80;99.90;;;;;;4460428;28;659965;-54
2021/03/08 01:07:33;;;;;;;67.55;30.25;;;-0.70;99.90;;;;;;4445775;28;659305;-52
2021/03/08 01:10:25;;;;;;;70.60;29.05;;;-0.60;99.90;;;;;;4464855;28;659013;-54
2021/03/08 01:13:13;;;;;;;71.33;27.97;;;-0.50;99.90;;;;;;4418991;28;659502;-54
2021/03/08 01:16:00;;;;;;;71.63;29.70;;;-0.60;99.90;;;;;;4461007;28;659911;-51
2021/03/08 01:18:46;;;;;;;74.10;29.33;;;-0.60;99.90;;;;;;4463584;28;659177;-54
2021/03/08 01:21:34;;;;;;;70.77;29.10;;;-0.60;99.90;;;;;;4444838;28;659204;-56
2021/03/08 01:24:21;;;;;;;65.87;29.87;;;-0.70;99.90;;;;;;4456921;28;659197;-54
2021/03/08 01:27:08;;;;;;;69.90;27.73;;;-0.70;99.90;;;;;;4442024;28;658934;-54
2021/03/08 01:29:56;;;;;;;30.27;13.37;;;-0.60;99.90;;;;;;4459657;28;659145;-53
2021/03/08 01:32:42;;;;;;;37.77;14.77;;;-0.40;99.90;;;;;;4445039;28;658546;-57
2021/03/08 01:35:30;;;;;;;62.53;25.33;;;-0.20;99.90;;;;;;4463694;28;659844;-51
2021/03/08 01:38:17;;;;;;;68.50;28.33;;;-0.30;99.90;;;;;;4456211;28;659479;-52
2021/03/08 01:41:04;;;;;;;65.67;27.40;;;-0.40;99.90;;;;;;4433267;28;659083;-49
2021/03/08 01:43:51;;;;;;;56.60;23.93;;;-0.40;99.90;;;;;;4463808;28;659616;-51
2021/03/08 01:46:38;;;;;;;72.57;31.20;;;-0.30;99.90;;;;;;4434179;28;660911;-52
2021/03/08 01:49:25;;;;;;;84.17;34.47;;;-0.40;99.90;;;;;;4462351;28;660243;-52
2021/03/08 01:52:12;;;;;;;86.57;35.53;;;-0.30;99.90;;;;;;4431874;28;660050;-54
2021/03/08 01:55:00;;;;;;;88.00;36.50;;;-0.50;99.90;;;;;;4464325;28;659283;-50
2021/03/08 01:57:47;;;;;;;72.63;26.77;;;-0.50;99.90;;;;;;4437664;28;659191;-54
2021/03/08 02:00:34;;;;;;;81.30;32.57;;;-0.60;99.90;;;;;;4456919;28;659410;-52
2021/03/08 02:03:21;;;;;;;81.77;33.37;;;-0.60;99.90;;;;;;4464337;28;658581;-53
2021/03/08 02:06:08;;;;;;;76.87;32.03;;;-0.70;99.90;;;;;;4443187;28;658538;-54
2021/03/08 02:08:55;;;;;;;79.87;31.10;;;-0.80;99.90;;;;;;4463659;28;659432;-53
2021/03/08 02:11:44;;;;;;;41.20;18.07;;;-0.90;99.90;;;;;;4445664;28;659355;-54
2021/03/08 02:14:38;;;;;;;77.93;31.00;;;-0.60;99.90;;;;;;4463965;28;658584;-51
2021/03/08 02:17:27;;;;;;;68.57;31.33;;;-0.70;99.90;;;;;;4439990;28;659614;-52
2021/03/08 02:20:44;;;;;;;73.83;30.10;;;-0.80;99.90;;;;;;4440306;28;658808;-53
2021/03/08 02:24:07;;;;;;;57.70;22.77;;;-0.70;99.90;;;;;;4439488;28;658745;-54
2021/03/08 02:26:56;;;;;;;51.67;16.83;;;-0.70;99.90;;;;;;4418022;28;658911;-53
2021/03/08 02:30:29;;;;;;;58.10;22.70;;;-0.60;99.90;;;;;;4439177;28;660243;-53
2021/03/08 02:33:23;;;;;;;71.67;31.00;;;-0.40;99.90;;;;;;4363767;28;660017;-54
2021/03/08 02:36:10;;;;;;;69.87;28.30;;;-0.70;99.90;;;;;;4369643;28;659398;-55
2021/03/08 02:39:00;;;;;;;69.30;26.47;;;-0.70;99.90;;;;;;4372470;28;660137;-54
2021/03/08 02:41:48;;;;;;;66.00;28.17;;;-0.80;99.90;;;;;;4380135;28;660176;-56
2021/03/08 02:44:36;;;;;;;54.63;19.93;;;-0.70;99.90;;;;;;4390633;28;660685;-54
2021/03/08 02:47:23;;;;;;;66.90;28.40;;;-0.80;99.90;;;;;;4354492;28;660881;-54
2021/03/08 02:50:12;;;;;;;50.43;18.53;;;-0.90;99.90;;;;;;4389637;28;659753;-54
2021/03/08 02:53:01;;;;;;;52.63;20.67;;;-0.50;99.90;;;;;;4373396;28;659660;-54
2021/03/08 02:55:52;;;;;;;67.60;27.03;;;-0.40;99.90;;;;;;4369793;28;658360;-52
2021/03/08 02:58:39;;;;;;;40.70;16.00;;;-0.50;99.90;;;;;;4366172;28;660210;-53
2021/03/08 03:01:26;;;;;;;75.60;29.73;;;-0.60;99.90;;;;;;4389106;28;658837;-53
2021/03/08 03:04:13;;;;;;;38.07;16.67;;;-0.70;99.90;;;;;;4372358;28;659386;-50
2021/03/08 03:07:01;;;;;;;71.23;28.63;;;-0.60;99.90;;;;;;4389351;28;659656;-55
2021/03/08 03:09:48;;;;;;;67.47;28.90;;;-0.50;99.90;;;;;;4368690;28;659548;-54
2021/03/08 03:12:35;;;;;;;73.77;29.87;;;-0.50;99.90;;;;;;4434478;28;659170;-49
2021/03/08 03:15:22;;;;;;;43.83;16.10;;;-0.70;99.90;;;;;;4442958;28;659769;-56
2021/03/08 03:18:09;;;;;;;68.13;28.37;;;-0.80;99.90;;;;;;4461673;28;660143;-53
2021/03/08 03:20:56;;;;;;;71.88;30.08;;;-0.80;99.90;;;;;;4464303;28;659051;-53
2021/03/08 03:23:44;;;;;;;76.10;29.60;;;-0.80;99.90;;;;;;4445969;28;658505;-52
2021/03/08 03:26:31;;;;;;;51.20;19.83;;;-0.80;99.90;;;;;;4453596;28;658570;-53
2021/03/08 03:29:18;;;;;;;40.13;16.23;;;-0.60;99.90;;;;;;4443376;28;659148;-51
2021/03/08 03:32:06;;;;;;;75.07;29.43;;;-0.50;99.90;;;;;;4463680;28;660121;-55
2021/03/08 03:34:53;;;;;;;75.03;29.73;;;-0.60;99.90;;;;;;4444477;28;658748;-52
2021/03/08 03:37:40;;;;;;;71.33;29.70;;;-0.70;99.90;;;;;;4463331;28;660023;-54
2021/03/08 03:40:28;;;;;;;70.73;28.40;;;-0.90;99.90;;;;;;4458540;28;658448;-56
2021/03/08 03:43:15;;;;;;;54.97;24.20;;;-1.10;99.90;;;;;;4466288;28;659109;-56
2021/03/08 03:46:02;;;;;;;69.67;27.53;;;-1.00;99.90;;;;;;4448278;28;658541;-55
2021/03/08 03:48:49;;;;;;;85.72;30.08;;;-0.80;99.90;;;;;;4465181;28;660190;-55
2021/03/08 03:51:36;;;;;;;70.53;29.30;;;-0.90;99.90;;;;;;4459811;28;659112;-53
2021/03/08 03:54:23;;;;;;;74.30;29.52;;;-1.00;99.90;;;;;;4447318;28;658189;-54
2021/03/08 03:57:11;;;;;;;67.77;30.67;;;-1.00;99.90;;;;;;4464964;28;659044;-54
2021/03/08 03:59:58;;;;;;;78.40;31.35;;;-1.10;99.90;;;;;;4446897;28;659302;-55
2021/03/08 04:02:48;;;;;;;71.00;28.47;;;-1.00;99.90;;;;;;4459065;28;658929;-52
2021/03/08 04:05:35;;;;;;;51.07;19.17;;;-1.10;99.90;;;;;;4442268;28;659991;-53
2021/03/08 04:08:25;;;;;;;67.43;28.33;;;-0.90;99.90;;;;;;4444077;28;659008;-56
2021/03/08 04:11:12;;;;;;;72.73;29.40;;;-0.70;99.90;;;;;;4440641;28;658618;-55
2021/03/08 04:14:02;;;;;;;63.63;26.47;;;-0.80;99.90;;;;;;4457520;28;659240;-51
2021/03/08 04:16:50;;;;;;;19.73;5.83;;;-0.90;99.90;;;;;;4432883;28;660047;-52
2021/03/08 04:19:37;;;;;;;43.50;16.30;;;-0.80;99.90;;;;;;4438726;28;659580;-55
2021/03/08 04:22:25;;;;;;;66.00;28.20;;;-0.60;99.90;;;;;;4462846;28;659683;-54
2021/03/08 04:25:13;;;;;;;68.77;28.30;;;-0.70;99.90;;;;;;4441355;28;658498;-57
2021/03/08 04:28:01;;;;;;;72.25;29.33;;;-0.80;99.90;;;;;;4466721;28;660295;-52
2021/03/08 04:30:48;;;;;;;69.57;28.37;;;-1.00;99.90;;;;;;4441485;28;658655;-55
2021/03/08 04:33:35;;;;;;;64.07;27.60;;;-0.80;99.90;;;;;;4465943;28;659941;-57
2021/03/08 04:36:22;;;;;;;64.03;28.33;;;-0.80;99.90;;;;;;4442960;28;658859;-56
2021/03/08 04:39:10;;;;;;;63.63;27.73;;;-1.00;99.90;;;;;;4465150;28;658582;-55
2021/03/08 04:41:57;;;;;;;61.17;27.10;;;-1.10;99.90;;;;;;4444941;28;658913;-55
2021/03/08 04:44:45;;;;;;;60.87;26.87;;;-1.10;99.90;;;;;;4464705;28;659837;-53
2021/03/08 04:47:33;;;;;;;74.43;29.13;;;-1.10;99.90;;;;;;4446423;28;659504;-54
2021/03/08 04:50:20;;;;;;;68.30;26.50;;;-1.20;99.90;;;;;;4464834;28;660657;-53
2021/03/08 04:53:07;;;;;;;64.95;27.90;;;-1.20;99.90;;;;;;4450533;28;658741;-57
2021/03/08 04:55:54;;;;;;;56.00;23.40;;;-1.20;99.90;;;;;;4468249;28;659028;-56
2021/03/08 04:58:41;;;;;;;57.77;24.83;;;-1.00;99.90;;;;;;4456591;28;658951;-54
2021/03/08 05:01:32;;;;;;;61.30;25.83;;;-0.90;99.90;;;;;;4433558;28;658451;-54
2021/03/08 05:04:19;;;;;;;59.93;24.47;;;-0.90;99.90;;;;;;4440794;28;660017;-55
2021/03/08 05:07:07;;;;;;;64.23;26.70;;;-0.90;99.90;;;;;;4455915;28;658660;-51
2021/03/08 05:09:55;;;;;;;63.80;26.27;;;-1.00;99.90;;;;;;4441192;28;659587;-52
2021/03/08 05:12:42;;;;;;;70.43;26.90;;;-1.00;99.90;;;;;;4465313;28;660605;-54
2021/03/08 05:15:29;;;;;;;66.57;26.70;;;-1.10;99.90;;;;;;4445411;28;658836;-54
2021/03/08 05:18:16;;;;;;;64.57;27.37;;;-1.00;99.90;;;;;;4463689;28;659870;-54
2021/03/08 05:21:05;;;;;;;60.77;27.23;;;-1.20;99.90;;;;;;4445209;28;658693;-56
2021/03/08 05:23:52;;;;;;;61.43;26.93;;;-1.20;99.90;;;;;;4452215;28;658576;-56
2021/03/08 05:26:39;;;;;;;63.55;24.83;;;-1.00;99.90;;;;;;4461296;28;660147;-52
2021/03/08 05:29:26;;;;;;;61.83;27.97;;;-1.00;99.90;;;;;;4466236;28;658635;-55
2021/03/08 05:32:15;;;;;;;64.90;27.10;;;-1.10;99.90;;;;;;4446859;28;658547;-52
2021/03/08 05:35:02;;;;;;;64.30;27.30;;;-1.00;99.90;;;;;;4433756;28;658975;-56
2021/03/08 05:37:50;;;;;;;70.30;28.33;;;-1.10;99.90;;;;;;4468337;28;659638;-51
2021/03/08 05:40:41;;;;;;;73.50;28.02;;;-1.00;99.90;;;;;;4446054;28;658663;-55
2021/03/08 05:43:28;;;;;;;77.90;30.50;;;-1.10;99.90;;;;;;4441133;28;659013;-51
2021/03/08 05:46:16;;;;;;;73.70;29.10;;;-1.20;99.90;;;;;;4463428;28;660014;-55
2021/03/08 05:49:25;;;;;;;80.63;31.17;;;-1.10;99.90;;;;;;4430288;28;659246;-54
2021/03/08 05:52:45;;;;;;;81.23;32.10;;;-1.10;99.90;;;;;;4435249;28;658841;-55
2021/03/08 05:55:43;;;;;;;71.87;30.57;;;-1.10;99.90;;;;;;4422518;28;659137;-55
2021/03/08 05:58:39;;;;;;;73.70;31.57;;;-1.10;99.90;;;;;;4440892;28;660345;-54
2021/03/08 06:01:59;;;;;;;76.30;32.07;;;-1.10;99.90;;;;;;4438502;28;658639;-56
2021/03/08 06:05:19;;;;;;;73.87;30.83;;;-1.10;99.90;;;;;;4437114;28;659227;-55
2021/03/08 06:08:39;;;;;;;71.37;26.17;;;-1.10;99.90;;;;;;4436454;28;659075;-51
2021/03/08 06:11:27;;;;;;;74.30;31.17;;;-0.80;99.90;;;;;;4433550;28;659651;-55
2021/03/08 06:14:16;;;;;;;81.93;32.83;;;-0.80;99.90;;;;;;4440752;28;660311;-53
2021/03/08 06:17:04;;;;;;;80.53;34.13;;;-0.90;99.90;;;;;;4438661;28;660317;-55
2021/03/08 06:19:50;;;;;;;74.47;32.77;;;-0.80;99.90;;;;;;4456698;28;659044;-53
2021/03/08 06:22:39;;;;;;;79.43;35.87;;;-0.70;99.90;;;;;;4444775;28;658658;-55
2021/03/08 06:25:26;;;;;;;84.47;35.03;;;-0.70;99.90;;;;;;4456116;28;659373;-52
2021/03/08 06:28:14;;;;;;;78.07;33.40;;;-0.90;99.90;;;;;;4440888;28;658842;-51
2021/03/08 06:31:01;;;;;;;85.50;35.50;;;-0.90;99.90;;;;;;4468370;28;658481;-54
2021/03/08 06:33:49;;;;;;;84.77;35.37;;;-0.80;99.90;;;;;;4443548;28;658518;-54
2021/03/08 06:36:35;;;;;;;81.67;35.93;;;-0.90;99.90;;;;;;4456468;28;658903;-54
2021/03/08 06:39:22;;;;;;;78.10;34.40;;;-0.90;99.90;;;;;;4442728;28;658800;-57
2021/03/08 06:42:10;;;;;;;82.40;35.03;;;-0.70;99.90;;;;;;4463802;28;660831;-52
2021/03/08 06:44:58;;;;;;;87.72;36.83;;;-0.80;99.90;;;;;;4446602;28;659928;-54
2021/03/08 06:47:45;;;;;;;83.90;35.10;;;-0.70;99.90;;;;;;4459337;28;660515;-53
2021/03/08 06:50:32;;;;;;;85.90;35.47;;;-0.70;99.90;;;;;;4444793;28;659292;-57
2021/03/08 06:53:32;;;;;;;84.33;36.90;;;-0.70;99.90;;;;;;4467346;28;658663;-56
2021/03/08 06:56:19;;;;;;;103.40;38.83;;;-0.60;99.90;;;;;;4417555;28;659963;-54
2021/03/08 06:59:08;;;;;;;92.97;37.40;;;-0.60;99.90;;;;;;4461119;28;659450;-52
2021/03/08 07:01:56;;;;;;;89.07;38.90;;;-0.60;99.90;;;;;;4433238;28;660538;-54
2021/03/08 07:04:45;;;;;;;95.60;39.20;;;-0.40;99.90;;;;;;4443828;28;658426;-57
2021/03/08 07:07:47;;;;;;;116.47;37.87;;;-0.40;99.90;;;;;;4457318;28;660044;-57
2021/03/08 07:10:35;;;;;;;96.83;39.20;;;-0.30;99.90;;;;;;4414007;28;660725;-55
2021/03/08 07:13:31;;;;;;;82.75;35.60;;;-0.30;99.90;;;;;;4446101;28;658566;-57
2021/03/08 07:16:18;;;;;;;87.10;36.37;;;-0.10;99.90;;;;;;4443607;28;659293;-56
2021/03/08 07:19:06;;;;;;;91.20;39.23;;;-0.10;99.90;;;;;;4464443;28;660412;-53
2021/03/08 07:21:53;;;;;;;103.50;41.13;;;-0.10;99.90;;;;;;4445503;28;659461;-56
2021/03/08 07:24:58;;;;;;;87.03;35.17;;;-0.10;99.90;;;;;;4451074;28;660928;-57
2021/03/08 07:27:47;;;;;;;89.27;36.10;;;0.30;99.90;;;;;;4437904;28;658997;-56
2021/03/08 07:30:36;;;;;;;74.90;30.20;;;0.20;99.90;;;;;;4449543;28;658879;-55
2021/03/08 07:33:24;;;;;;;91.97;35.93;;;0.20;99.90;;;;;;4437258;28;659353;-55
2021/03/08 07:36:15;;;;;;;93.30;36.20;;;0.20;99.90;;;;;;4466224;28;658913;-56
2021/03/08 07:39:12;;;;;;;107.57;39.53;;;0.10;99.90;;;;;;4429779;28;657758;-57
2021/03/08 07:42:00;;;;;;;86.40;34.97;;;0.10;99.90;;;;;;4416476;28;660159;-57
2021/03/08 07:44:48;;;;;;;89.80;36.30;;;0.20;99.90;;;;;;4442305;28;659707;-57
2021/03/08 07:47:35;;;;;;;97.90;37.23;;;0.30;99.90;;;;;;4469614;28;658660;-55
2021/03/08 07:50:26;;;;;;;96.32;37.90;;;0.20;99.90;;;;;;4453307;28;658107;-58
2021/03/08 07:53:28;;;;;;;100.33;38.33;;;0.20;99.90;;;;;;4431803;28;657986;-55
2021/03/08 07:56:15;;;;;;;92.63;35.33;;;0.10;99.90;;;;;;4409961;28;659345;-54
2021/03/08 07:59:02;;;;;;;92.00;35.07;;;0.10;99.90;;;;;;4459269;28;657619;-58
2021/03/08 08:01:50;;;;;;;89.57;35.53;;;0.40;99.90;;;;;;4466963;28;659532;-57
2021/03/08 08:04:37;;;;;;;78.60;31.20;;;0.40;99.90;;;;;;4460414;28;659774;-58
2021/03/08 08:07:26;;;;;;;80.43;32.60;;;0.50;99.90;;;;;;4441254;28;658518;-57
2021/03/08 08:10:16;;;;;;;76.72;32.08;;;0.40;99.90;;;;;;4448757;28;658918;-57
2021/03/08 08:13:03;;;;;;;70.85;24.10;;;0.50;99.90;;;;;;4448446;28;658365;-57
2021/03/08 08:15:51;;;;;;;75.17;31.37;;;0.60;99.90;;;;;;4467621;28;658859;-56
2021/03/08 08:18:39;;;;;;;70.73;29.10;;;0.60;99.90;;;;;;4442769;28;658624;-59
2021/03/08 08:21:27;;;;;;;73.83;29.83;;;0.70;99.90;;;;;;4453191;28;657610;-56
2021/03/08 08:24:18;;;;;;;72.40;28.10;;;0.70;99.90;;;;;;4442308;28;657741;-55
2021/03/08 08:27:06;;;;;;;61.47;22.70;;;1.00;99.90;;;;;;4444468;28;658610;-57
2021/03/08 08:29:53;;;;;;;58.35;23.85;;;1.10;99.90;;;;;;4444283;28;658092;-56
2021/03/08 08:32:51;;;;;;;66.47;28.10;;;1.30;99.90;;;;;;4454043;28;658836;-56
2021/03/08 08:35:38;;;;;;;70.30;26.47;;;1.10;99.90;;;;;;4403143;28;657727;-56
2021/03/08 08:38:26;;;;;;;65.83;27.33;;;0.90;99.90;;;;;;4460615;28;658160;-57
2021/03/08 08:41:25;;;;;;;63.27;25.07;;;0.70;99.90;;;;;;4440988;28;657841;-58
2021/03/08 08:44:31;;;;;;;54.47;21.43;;;0.90;99.90;;;;;;4416040;28;658379;-55
2021/03/08 08:47:21;;;;;;;50.40;19.10;;;1.10;99.90;;;;;;4420022;28;658055;-58
2021/03/08 08:50:09;;;;;;;64.00;26.30;;;1.40;99.90;;;;;;4447321;28;657695;-57
2021/03/08 08:52:56;;;;;;;55.23;19.37;;;1.50;99.90;;;;;;4465614;28;657632;-58
2021/03/08 08:55:49;;;;;;;58.22;21.15;;;1.70;99.90;;;;;;4442114;28;658536;-57
2021/03/08 08:58:43;;;;;;;54.28;21.95;;;1.80;99.90;;;;;;4443953;28;658495;-55
2021/03/08 09:01:35;;;;;;;55.73;21.73;;;1.90;99.90;;;;;;4437992;28;658077;-57
2021/03/08 09:04:29;;;;;;;48.53;21.63;;;1.90;99.90;;;;;;4425599;28;657642;-57
2021/03/08 09:07:18;;;;;;;46.33;20.13;;;2.00;99.90;;;;;;4439557;28;658611;-57
2021/03/08 09:10:05;;;;;;;41.10;19.13;;;2.10;99.90;;;;;;4438028;28;658455;-57
2021/03/08 09:12:59;;;;;;;43.10;19.00;;;2.30;99.90;;;;;;4445080;28;658184;-63
2021/03/08 09:15:46;;;;;;;43.33;18.60;;;2.60;99.90;;;;;;4437796;28;657946;-66
2021/03/08 09:18:35;;;;;;;39.80;17.90;;;2.70;99.90;;;;;;4443792;28;658448;-65
2021/03/08 09:21:22;;;;;;;36.63;15.70;;;2.80;99.90;;;;;;4447558;28;658880;-61
2021/03/08 09:24:30;;;;;;;41.77;19.17;;;3.00;99.90;;;;;;4454224;28;658588;-66
2021/03/08 09:27:21;;;;;;;36.70;16.33;;;3.10;99.90;;;;;;4445519;28;657748;-63
2021/03/08 09:30:09;;;;;;;36.60;15.50;;;3.30;99.90;;;;;;4447672;28;658975;-64
2021/03/08 09:32:57;;;;;;;33.93;16.00;;;3.70;99.90;;;;;;4458451;28;658073;-65
2021/03/08 09:35:46;;;;;;;36.80;15.73;;;3.70;99.90;;;;;;4437527;28;658325;-66
2021/03/08 09:38:33;;;;;;;25.80;9.77;;;3.80;99.90;;;;;;4446700;28;658290;-65
2021/03/08 09:41:22;;;;;;;31.13;15.37;;;3.70;99.90;;;;;;4454384;28;657588;-65
2021/03/08 09:44:09;;;;;;;29.63;13.13;;;3.60;99.90;;;;;;4438864;28;657551;-66
2021/03/08 09:46:56;;;;;;;25.90;12.90;;;3.60;99.90;;;;;;4457146;28;658220;-66
2021/03/08 09:49:47;;;;;;;31.97;14.47;;;3.90;99.90;;;;;;4434932;28;657979;-65
2021/03/08 09:52:36;;;;;;;28.17;12.00;;;4.20;99.90;;;;;;4436437;28;659470;-65
2021/03/08 09:55:24;;;;;;;29.53;12.60;;;4.30;99.90;;;;;;4446043;28;657545;-62
2021/03/08 09:58:13;;;;;;;17.70;8.37;;;4.00;99.90;;;;;;4460887;28;657675;-65
2021/03/08 10:01:00;;;;;;;16.90;8.53;;;3.50;99.90;;;;;;4443424;28;657664;-66
2021/03/08 10:03:48;;;;;;;17.90;8.73;;;3.10;99.90;;;;;;4441993;28;656595;-62
2021/03/08 10:06:35;;;;;;;20.33;9.13;;;2.90;99.90;;;;;;4465028;28;657916;-64
2021/03/08 10:09:24;;;;;;;22.67;9.97;;;2.90;99.90;;;;;;4453024;28;656747;-60
2021/03/08 10:12:12;;;;;;;18.77;8.90;;;3.80;99.90;;;;;;4463530;28;656581;-66
2021/03/08 10:14:59;;;;;;;19.67;9.40;;;4.20;99.90;;;;;;4433445;28;658307;-65
2021/03/08 10:18:00;;;;;;;21.43;9.93;;;4.40;99.90;;;;;;4465149;28;656610;-65
2021/03/08 10:20:57;;;;;;;23.02;10.80;;;4.50;99.90;;;;;;4438070;28;656718;-60
2021/03/08 10:23:44;;;;;;;11.63;5.67;;;4.70;99.90;;;;;;4414506;28;658121;-65
2021/03/08 10:26:32;;;;;;;15.70;8.27;;;4.90;99.90;;;;;;4458859;28;656375;-65
2021/03/08 10:29:19;;;;;;;15.23;7.60;;;5.30;99.90;;;;;;4442625;28;657288;-66
2021/03/08 10:32:07;;;;;;;17.13;8.40;;;5.90;99.90;;;;;;4458510;28;656972;-64
2021/03/08 10:34:54;;;;;;;13.13;6.93;;;6.30;99.90;;;;;;4443619;28;657816;-66
2021/03/08 10:37:41;;;;;;;12.67;6.10;;;6.20;98.40;;;;;;4466974;28;657169;-65
2021/03/08 10:40:29;;;;;;;11.63;5.90;;;6.10;92.70;;;;;;4442040;28;656843;-65
2021/03/08 10:43:20;;;;;;;13.90;6.57;;;6.40;90.80;;;;;;4460040;28;657862;-61
2021/03/08 10:46:07;;;;;;;16.90;7.20;;;6.80;93.00;;;;;;4433386;28;656819;-62
2021/03/08 10:48:55;;;;;;;14.20;6.60;;;7.40;93.70;;;;;;4469773;28;656524;-64
2021/03/08 10:51:42;;;;;;;12.05;6.90;;;6.40;89.80;;;;;;4445685;28;656430;-61
2021/03/08 10:54:38;;;;;;;9.80;4.70;;;6.10;91.00;;;;;;4472092;28;657079;-65
2021/03/08 10:57:27;;;;;;;10.60;4.47;;;5.10;88.80;;;;;;4445565;28;656248;-65
2021/03/08 11:00:20;;;;;;;10.93;5.53;;;4.70;87.00;;;;;;4449835;28;656382;-65
2021/03/08 11:03:09;;;;;;;14.03;5.53;;;4.30;89.60;;;;;;4436590;28;656703;-61
2021/03/08 11:06:06;;;;;;;13.73;6.17;;;4.30;90.50;;;;;;4468046;28;656962;-65
2021/03/08 11:09:00;;;;;;;15.13;6.17;;;4.70;93.00;;;;;;4427196;28;656671;-66
2021/03/08 11:11:47;;;;;;;16.00;6.13;;;5.70;93.50;;;;;;4465815;28;656270;-62
2021/03/08 11:14:53;;;;;;;14.73;5.80;;;6.20;90.10;;;;;;4459212;28;656634;-65
2021/03/08 11:17:42;;;;;;;11.67;6.33;;;7.20;84.80;;;;;;4445994;28;658080;-66
2021/03/08 11:20:30;;;;;;;12.73;6.90;;;7.80;80.40;;;;;;4446220;28;657856;-66
2021/03/08 11:23:24;;;;;;;7.90;3.77;;;8.10;79.90;;;;;;4454369;28;656229;-59
2021/03/08 11:26:11;;;;;;;9.90;4.83;;;7.40;76.00;;;;;;4451388;28;655994;-65
2021/03/08 11:28:58;;;;;;;10.30;5.35;;;6.20;74.90;;;;;;4451498;28;655812;-64
2021/03/08 11:31:52;;;;;;;13.20;6.40;;;5.30;81.20;;;;;;4469897;28;657589;-65
2021/03/08 11:34:41;;;;;;;7.50;3.77;;;4.90;83.10;;;;;;4424509;28;658683;-66
2021/03/08 11:37:30;;;;;;;10.70;5.90;;;5.00;80.80;;;;;;4451728;28;656985;-65
2021/03/08 11:40:18;;;;;;;20.37;8.80;;;4.90;85.40;;;;;;4450690;28;657626;-62
2021/03/08 11:43:05;;;;;;;9.53;5.37;;;5.10;85.40;;;;;;4462613;28;658362;-65
2021/03/08 11:45:52;;;;;;;15.85;8.18;;;5.10;80.40;;;;;;4441870;28;656232;-61
2021/03/08 11:48:39;;;;;;;12.07;6.23;;;5.20;80.90;;;;;;4468530;28;658534;-65
2021/03/08 11:51:28;;;;;;;9.03;4.83;;;5.70;82.00;;;;;;4467190;28;656820;-65
2021/03/08 11:54:14;;;;;;;16.07;5.90;;;6.20;72.80;;;;;;4447519;28;658570;-65
2021/03/08 11:57:02;;;;;;;7.53;4.60;;;7.10;79.90;;;;;;4469448;28;657218;-66
2021/03/08 11:59:49;;;;;;;10.67;5.17;;;7.60;69.50;;;;;;4444626;28;656811;-61
2021/03/08 12:02:36;;;;;;;9.00;4.80;;;7.00;67.70;;;;;;4467661;28;656842;-65
2021/03/08 12:05:23;;;;;;;11.70;6.27;;;5.90;71.00;;;;;;4448813;28;655373;-64
2021/03/08 12:08:11;;;;;;;12.00;6.03;;;5.20;76.00;;;;;;4472087;28;657344;-63
2021/03/08 12:10:58;;;;;;;11.33;5.10;;;4.60;79.30;;;;;;4445614;28;656719;-65
2021/03/08 12:13:45;;;;;;;10.93;4.63;;;4.30;82.60;;;;;;4467814;28;658058;-64
2021/03/08 12:16:32;;;;;;;19.67;5.17;;;4.00;80.70;;;;;;4440480;28;656445;-61
2021/03/08 12:19:19;;;;;;;14.43;4.90;;;3.80;83.50;;;;;;4471301;28;657314;-63
2021/03/08 12:22:06;;;;;;;9.33;4.60;;;4.00;82.30;;;;;;4463334;28;657652;-61
2021/03/08 12:24:54;;;;;;;11.90;4.90;;;4.40;79.70;;;;;;4449481;28;656326;-65
2021/03/08 12:27:41;;;;;;;12.55;5.22;;;5.20;79.50;;;;;;4468016;28;656981;-65
2021/03/08 12:30:29;;;;;;;10.47;4.87;;;6.20;77.90;;;;;;4449904;28;657445;-64
2021/03/08 12:33:16;;;;;;;8.67;4.47;;;6.80;70.10;;;;;;4468485;28;657274;-64
2021/03/08 12:36:03;;;;;;;12.87;4.70;;;6.70;70.10;;;;;;4452128;28;655651;-65
2021/03/08 12:38:50;;;;;;;11.27;4.70;;;6.50;69.60;;;;;;4451768;28;656856;-65
2021/03/08 12:41:38;;;;;;;11.93;5.17;;;5.90;67.00;;;;;;4439997;28;656478;-62
2021/03/08 12:44:25;;;;;;;16.30;5.07;;;5.30;71.30;;;;;;4466490;28;657583;-65
2021/03/08 12:47:12;;;;;;;18.70;7.20;;;5.00;72.30;;;;;;4449257;28;657780;-64
2021/03/08 12:49:59;;;;;;;8.90;3.73;;;4.80;71.70;;;;;;4468335;28;657864;-64
2021/03/08 12:52:47;;;;;;;9.37;3.87;;;4.60;69.10;;;;;;4469108;28;655429;-66
2021/03/08 12:55:34;;;;;;;13.97;3.60;;;5.50;66.60;;;;;;4441811;28;656314;-62
2021/03/08 12:58:22;;;;;;;7.93;3.83;;;6.40;67.10;;;;;;4467447;28;656403;-65
2021/03/08 13:01:09;;;;;;;7.63;3.47;;;7.30;61.60;;;;;;4450564;28;656216;-66
2021/03/08 13:03:56;;;;;;;8.40;3.50;;;8.40;62.20;;;;;;4469028;28;656707;-65
2021/03/08 13:06:43;;;;;;;4.87;3.07;;;9.80;60.20;;;;;;4448661;28;655924;-65
2021/03/08 13:09:30;;;;;;;6.00;3.30;;;9.80;53.40;;;;;;4469234;28;657126;-64
2021/03/08 13:12:17;;;;;;;9.35;3.70;;;10.30;51.90;;;;;;4446902;28;655258;-62
2021/03/08 13:15:06;;;;;;;7.53;3.40;;;11.10;48.90;;;;;;4466739;28;657119;-66
2021/03/08 13:17:55;;;;;;;6.43;3.10;;;11.00;43.60;;;;;;4444714;28;656784;-65
2021/03/08 13:20:42;;;;;;;9.27;4.67;;;11.80;45.30;;;;;;4442043;28;657562;-64
2021/03/08 13:23:29;;;;;;;4.17;2.50;;;12.70;45.00;;;;;;4459398;28;658464;-65
2021/03/08 13:26:16;;;;;;;11.87;3.67;;;12.50;44.10;;;;;;4467121;28;656377;-65
2021/03/08 13:29:03;;;;;;;6.60;3.10;;;11.30;46.70;;;;;;4447190;28;657684;-65
2021/03/08 13:31:51;;;;;;;5.77;2.87;;;10.00;44.50;;;;;;4462174;28;657469;-66
2021/03/08 13:34:38;;;;;;;6.50;3.00;;;8.70;50.00;;;;;;4440393;28;657652;-64
2021/03/08 13:37:25;;;;;;;8.03;3.17;;;7.80;51.30;;;;;;4468770;28;656709;-65
2021/03/08 13:40:14;;;;;;;9.05;3.40;;;7.20;54.00;;;;;;4434356;28;655638;-61
2021/03/08 13:43:01;;;;;;;29.93;9.67;;;6.60;55.60;;;;;;4462927;28;656108;-63
2021/03/08 13:45:48;;;;;;;155.07;37.47;;;6.30;56.60;;;;;;4440513;28;656642;-64
2021/03/08 13:48:39;;;;;;;36.23;12.13;;;5.90;58.60;;;;;;4457908;28;660671;-65
2021/03/08 13:51:26;;;;;;;341.10;67.60;;;5.40;59.20;;;;;;4442503;28;658611;-64
2021/03/08 13:54:13;;;;;;;342.13;67.27;;;5.10;59.70;;;;;;4445378;28;658586;-64
2021/03/08 13:57:00;;;;;;;57.53;13.17;;;5.10;61.40;;;;;;4467074;28;659731;-64
2021/03/08 13:59:47;;;;;;;144.53;28.90;;;5.10;60.40;;;;;;4456272;28;658137;-59
2021/03/08 14:02:35;;;;;;;479.70;96.10;;;5.20;59.50;;;;;;4466591;28;658599;-63
2021/03/08 14:05:23;;;;;;;31.27;8.37;;;5.20;58.60;;;;;;4446205;28;658411;-62
2021/03/08 14:08:10;;;;;;;11.93;3.60;;;5.00;58.40;;;;;;4459943;28;657399;-64
2021/03/08 14:10:57;;;;;;;119.00;39.70;;;4.60;58.80;;;;;;4447369;28;657434;-60
2021/03/08 14:13:44;;;;;;;50.33;16.23;;;4.60;60.70;;;;;;4454960;28;659354;-65